createdAt,value
2022-09-12T00:01:20.342Z,60.12
2022-09-12T00:03:47.973Z,60.08
2022-09-12T00:06:23.467Z,60.14
2022-09-12T00:08:52.205Z,60.16
2022-09-12T00:11:19.414Z,59.95
2022-09-12T00:13:46.610Z,59.66
2022-09-12T00:16:24.271Z,59.92
2022-09-12T00:18:52.765Z,59.94
2022-09-12T00:21:21.530Z,59.36
2022-09-12T00:23:49.520Z,59.75
2022-09-12T00:26:17.525Z,59.43
2022-09-12T00:28:45.572Z,59.51
2022-09-12T00:31:17.531Z,59.49
2022-09-12T00:33:45.173Z,59.61
2022-09-12T00:36:20.551Z,60.18
2022-09-12T00:38:49.428Z,60.12
2022-09-12T00:41:29.994Z,60.07
2022-09-12T00:44:01.394Z,59.65
2022-09-12T00:46:49.780Z,59.78
2022-09-12T00:49:36.765Z,59.74
2022-09-12T00:52:15.011Z,60.06
2022-09-12T00:54:49.297Z,60.09
2022-09-12T00:57:18.175Z,59.94
2022-09-12T00:59:54.582Z,60.14
2022-09-12T01:02:22.120Z,60.23
2022-09-12T01:04:49.975Z,60.28
2022-09-12T01:07:17.368Z,60.38
2022-09-12T01:09:46.053Z,61.04
2022-09-12T01:12:15.622Z,60.39
2022-09-12T01:14:42.912Z,60.36
2022-09-12T01:17:16.874Z,60.52
2022-09-12T01:19:56.002Z,60.38
2022-09-12T01:22:54.517Z,60.56
2022-09-12T01:26:02.691Z,60.40
2022-09-12T01:29:07.302Z,60.71
2022-09-12T01:31:59.873Z,60.45
2022-09-12T01:34:51.540Z,60.69
2022-09-12T01:37:35.672Z,60.03
2022-09-12T01:40:16.681Z,59.90
2022-09-12T01:43:08.249Z,59.89
2022-09-12T01:45:38.943Z,59.91
2022-09-12T01:48:13.394Z,60.34
2022-09-12T01:50:54.470Z,60.25
2022-09-12T01:53:28.306Z,60.54
2022-09-12T01:56:11.097Z,60.47
2022-09-12T01:58:51.477Z,60.75
2022-09-12T02:01:32.024Z,61.01
2022-09-12T02:04:12.008Z,61.17
2022-09-12T02:06:50.108Z,61.47
2022-09-12T02:09:32.240Z,61.30
2022-09-12T02:12:01.645Z,60.97
2022-09-12T02:14:43.321Z,61.32
2022-09-12T02:17:15.134Z,61.54
2022-09-12T02:19:51.547Z,61.77
2022-09-12T02:22:22.086Z,61.27
2022-09-12T02:24:54.697Z,61.03
2022-09-12T02:27:24.751Z,61.53
2022-09-12T02:29:52.351Z,61.05
2022-09-12T02:32:32.607Z,60.88
2022-09-12T02:35:21.596Z,60.67
2022-09-12T02:38:07.752Z,59.86
2022-09-12T02:40:36.194Z,60.36
2022-09-12T02:43:05.844Z,60.68
2022-09-12T02:45:35.691Z,60.49
2022-09-12T02:48:16.143Z,60.90
2022-09-12T02:50:43.688Z,61.60
2022-09-12T02:53:11.404Z,61.28
2022-09-12T02:55:40.577Z,61.81
2022-09-12T02:58:14.693Z,61.75
2022-09-12T03:00:54.142Z,61.82
2022-09-12T03:04:07.995Z,61.88
2022-09-12T03:06:53.589Z,61.95
2022-09-12T03:10:16.130Z,61.84
2022-09-12T03:13:04.527Z,62.51
2022-09-12T03:16:02.874Z,62.42
2022-09-12T03:18:51.452Z,61.89
2022-09-12T03:21:50.367Z,62.04
2022-09-12T03:24:35.229Z,62.08
2022-09-12T03:27:27.629Z,62.44
2022-09-12T03:29:56.141Z,62.60
2022-09-12T03:32:46.464Z,62.71
2022-09-12T03:35:18.821Z,62.98
2022-09-12T03:37:50.214Z,62.53
2022-09-12T03:40:17.831Z,62.64
2022-09-12T03:42:44.949Z,62.00
2022-09-12T03:45:12.760Z,61.88
2022-09-12T03:47:40.702Z,61.86
2022-09-12T03:50:08.714Z,61.97
2022-09-12T03:52:36.052Z,62.22
2022-09-12T03:55:03.504Z,61.84
2022-09-12T03:57:30.638Z,61.93
2022-09-12T03:59:57.904Z,62.23
2022-09-12T04:02:25.155Z,62.13
2022-09-12T04:04:52.360Z,62.21
2022-09-12T04:07:19.471Z,62.06
2022-09-12T04:09:46.704Z,61.97
2022-09-12T04:12:14.175Z,62.01
2022-09-12T04:14:41.528Z,61.25
2022-09-12T04:17:08.985Z,61.24
2022-09-12T04:19:36.114Z,61.15
2022-09-12T04:22:03.626Z,61.22
2022-09-12T04:24:30.816Z,61.60
2022-09-12T04:26:58.117Z,61.54
2022-09-12T04:29:25.498Z,62.19
2022-09-12T04:31:52.709Z,61.72
2022-09-12T04:34:19.858Z,61.71
2022-09-12T04:36:47.003Z,61.86
2022-09-12T04:39:14.058Z,61.64
2022-09-12T04:41:42.103Z,61.68
2022-09-12T04:44:14.406Z,60.77
2022-09-12T04:46:45.713Z,60.77
2022-09-12T04:49:16.270Z,60.88
2022-09-12T04:51:43.635Z,60.94
2022-09-12T04:54:17.833Z,61.23
2022-09-12T04:56:49.015Z,60.84
2022-09-12T04:59:19.369Z,60.69
2022-09-12T05:01:46.765Z,60.12
2022-09-12T05:04:14.704Z,59.70
2022-09-12T05:06:43.108Z,59.70
2022-09-12T05:09:14.142Z,59.91
2022-09-12T05:14:32.624Z,60.29
2022-09-12T05:17:01.824Z,60.55
2022-09-12T05:19:30.895Z,60.39
2022-09-12T05:21:59.104Z,59.95
2022-09-12T05:24:26.679Z,60.06
2022-09-12T05:26:53.971Z,59.93
2022-09-12T05:29:21.020Z,59.68
2022-09-12T05:31:52.306Z,58.37
2022-09-12T05:34:21.259Z,58.06
2022-09-12T05:36:49.194Z,58.13
2022-09-12T05:39:16.617Z,58.21
2022-09-12T05:41:43.688Z,58.44
2022-09-12T05:44:14.675Z,58.76
2022-09-12T05:46:45.583Z,58.94
2022-09-12T05:49:14.653Z,59.34
2022-09-12T05:51:45.049Z,59.05
2022-09-12T05:54:15.796Z,58.53
2022-09-12T05:56:44.663Z,58.28
2022-09-12T05:59:16.108Z,57.93
2022-09-12T06:01:43.751Z,57.48
2022-09-12T06:04:11.404Z,57.46
2022-09-12T06:06:47.341Z,56.78
2022-09-12T06:09:16.385Z,56.07
2022-09-12T06:11:45.723Z,55.62
2022-09-12T06:14:16.277Z,55.86
2022-09-12T06:16:43.598Z,55.71
2022-09-12T06:19:21.757Z,54.90
2022-09-12T06:21:49.828Z,54.49
2022-09-12T06:24:18.408Z,54.28
2022-09-12T06:26:47.256Z,53.79
2022-09-12T06:29:14.887Z,54.30
2022-09-12T06:31:43.679Z,53.84
2022-09-12T06:34:14.210Z,53.21
2022-09-12T06:36:45.110Z,53.36
2022-09-12T06:39:19.413Z,53.56
2022-09-12T06:41:48.413Z,53.36
2022-09-12T06:44:21.038Z,53.16
2022-09-12T06:46:49.095Z,52.98
2022-09-12T06:49:17.653Z,53.14
2022-09-12T06:51:45.053Z,53.10
2022-09-12T06:54:17.261Z,54.04
2022-09-12T06:56:44.938Z,54.29
2022-09-12T06:59:12.539Z,54.75
2022-09-12T07:01:41.870Z,54.54
2022-09-12T07:04:09.454Z,54.44
2022-09-12T07:06:40.621Z,54.53
2022-09-12T07:09:12.094Z,54.84
2022-09-12T07:11:41.705Z,55.51
2022-09-12T07:14:12.084Z,54.75
2022-09-12T07:16:39.235Z,54.28
2022-09-12T07:19:08.328Z,53.09
2022-09-12T07:21:40.462Z,52.49
2022-09-12T07:24:10.126Z,52.12
2022-09-12T07:26:37.913Z,52.02
2022-09-12T07:29:25.535Z,52.11
2022-09-12T07:31:52.368Z,51.24
2022-09-12T07:34:19.435Z,51.17
2022-09-12T07:36:47.540Z,51.95
2022-09-12T07:39:14.792Z,52.87
2022-09-12T07:41:41.980Z,52.32
2022-09-12T07:44:09.133Z,52.05
2022-09-12T07:46:36.221Z,51.66
2022-09-12T07:49:03.866Z,51.80
2022-09-12T07:51:31.851Z,50.66
2022-09-12T07:53:59.495Z,49.62
2022-09-12T07:56:32.736Z,49.70
2022-09-12T07:59:01.987Z,49.52
2022-09-12T08:01:29.281Z,48.42
2022-09-12T08:04:00.231Z,48.17
2022-09-12T08:06:32.228Z,48.17
2022-09-12T08:08:59.984Z,47.16
2022-09-12T08:11:29.028Z,46.69
2022-09-12T08:13:57.935Z,46.37
2022-09-12T08:16:29.722Z,46.24
2022-09-12T08:18:57.344Z,45.00
2022-09-12T08:21:30.630Z,45.49
2022-09-12T08:24:04.347Z,46.72
2022-09-12T08:26:33.635Z,46.77
2022-09-12T08:29:01.411Z,46.46
2022-09-12T08:31:28.851Z,45.97
2022-09-12T08:33:58.708Z,46.23
2022-09-12T08:36:28.280Z,45.19
2022-09-12T08:39:00.253Z,45.10
2022-09-12T08:41:36.058Z,44.40
2022-09-12T08:44:39.954Z,44.06
2022-09-12T08:47:29.573Z,44.43
2022-09-12T08:50:09.654Z,43.22
2022-09-12T08:52:49.059Z,42.42
2022-09-12T08:55:32.716Z,42.43
2022-09-12T08:58:02.224Z,41.93
2022-09-12T09:00:47.520Z,42.12
2022-09-12T09:03:46.901Z,42.90
2022-09-12T09:06:53.174Z,42.92
2022-09-12T09:09:51.479Z,42.84
2022-09-12T09:12:33.136Z,42.40
2022-09-12T09:15:12.254Z,42.05
2022-09-12T09:17:58.338Z,41.16
2022-09-12T09:20:31.367Z,41.02
2022-09-12T09:23:15.467Z,41.22
2022-09-12T09:26:05.560Z,41.09
2022-09-12T09:28:54.209Z,41.33
2022-09-12T09:31:25.307Z,41.31
2022-09-12T09:33:57.500Z,41.38
2022-09-12T09:36:45.817Z,41.92
2022-09-12T09:39:28.633Z,40.45
2022-09-12T09:42:46.829Z,40.05
2022-09-12T09:45:18.906Z,40.17
2022-09-12T09:48:16.020Z,40.52
2022-09-12T09:50:49.471Z,41.08
2022-09-12T09:53:51.340Z,41.02
2022-09-12T09:56:40.886Z,40.30
2022-09-12T09:59:26.818Z,39.66
2022-09-12T10:02:24.371Z,39.95
2022-09-12T10:04:57.888Z,38.95
2022-09-12T10:07:26.221Z,38.81
2022-09-12T10:10:17.232Z,39.05
2022-09-12T10:12:44.582Z,38.42
2022-09-12T10:15:30.554Z,39.05
2022-09-12T10:17:58.898Z,38.47
2022-09-12T10:20:36.126Z,38.47
2022-09-12T10:23:17.978Z,38.34
2022-09-12T10:26:09.761Z,39.21
2022-09-12T10:29:11.568Z,40.04
2022-09-12T10:31:55.691Z,42.04
2022-09-12T10:34:43.043Z,41.88
2022-09-12T10:37:24.806Z,41.21
2022-09-12T10:39:57.267Z,41.24
2022-09-12T10:42:48.161Z,40.24
2022-09-12T10:45:36.986Z,39.01
2022-09-12T10:48:31.888Z,38.26
2022-09-12T10:51:00.688Z,36.93
2022-09-12T10:53:34.694Z,37.57
2022-09-12T10:56:12.240Z,37.33
2022-09-12T10:59:20.405Z,37.44
2022-09-12T11:02:36.586Z,36.71
2022-09-12T11:05:22.979Z,36.47
2022-09-12T11:08:22.232Z,36.42
2022-09-12T11:11:34.743Z,36.32
2022-09-12T11:14:39.602Z,35.47
2022-09-12T11:17:48.298Z,35.65
2022-09-12T11:20:55.079Z,36.03
2022-09-12T11:23:56.020Z,36.50
2022-09-12T11:27:05.527Z,37.77
2022-09-12T11:29:45.764Z,36.03
2022-09-12T11:32:35.466Z,33.17
2022-09-12T11:35:27.497Z,31.14
2022-09-12T11:38:41.774Z,28.27
2022-09-12T11:41:19.232Z,25.90
2022-09-12T11:44:03.658Z,24.63
2022-09-12T11:46:39.920Z,24.26
2022-09-12T11:49:12.381Z,23.78
2022-09-12T11:52:04.754Z,23.49
2022-09-12T11:54:57.823Z,22.97
2022-09-12T11:57:49.506Z,21.53
2022-09-12T12:00:44.260Z,21.34
2022-09-12T12:03:40.566Z,20.52
2022-09-12T12:06:21.976Z,21.01
2022-09-12T12:08:50.692Z,22.87
2022-09-12T12:11:36.114Z,25.39
2022-09-12T12:14:08.156Z,27.47
2022-09-12T12:16:38.979Z,29.17
2022-09-12T12:19:15.242Z,29.93
2022-09-12T12:21:44.390Z,30.02
2022-09-12T12:24:20.749Z,29.20
2022-09-12T12:26:53.328Z,28.18
2022-09-12T12:29:20.329Z,28.85
2022-09-12T12:31:59.594Z,30.00
2022-09-12T12:34:38.131Z,29.95
2022-09-12T12:37:23.092Z,29.64
2022-09-12T12:39:51.091Z,30.56
2022-09-12T12:42:36.270Z,31.11
2022-09-12T12:45:09.420Z,31.96
2022-09-12T12:47:36.430Z,32.36
2022-09-12T12:50:27.204Z,29.26
2022-09-12T12:53:07.174Z,26.92
2022-09-12T12:55:42.135Z,25.48
2022-09-12T12:58:32.775Z,22.68
2022-09-12T13:01:22.903Z,21.92
2022-09-12T13:04:17.081Z,20.45
2022-09-12T13:06:47.416Z,20.56
2022-09-12T13:09:37.680Z,19.75
2022-09-12T13:12:09.247Z,20.78
2022-09-12T13:15:03.112Z,23.24
2022-09-12T13:17:44.768Z,25.22
2022-09-12T13:20:28.281Z,26.44
2022-09-12T13:22:56.279Z,25.06
2022-09-12T13:25:33.470Z,24.72
2022-09-12T13:28:23.146Z,25.95
2022-09-12T13:31:23.137Z,26.08
2022-09-12T13:33:58.283Z,26.17
2022-09-12T13:36:49.645Z,25.72
2022-09-12T13:39:28.748Z,24.21
2022-09-12T13:42:35.907Z,22.82
2022-09-12T13:45:16.166Z,21.89
2022-09-12T13:47:49.214Z,21.64
2022-09-12T13:50:50.306Z,21.86
2022-09-12T13:53:22.515Z,22.46
2022-09-12T13:56:00.274Z,22.43
2022-09-12T13:58:27.261Z,22.55
2022-09-12T14:01:16.432Z,22.59
2022-09-12T14:04:10.594Z,23.26
2022-09-12T14:06:52.675Z,23.27
2022-09-12T14:09:32.665Z,22.75
2022-09-12T14:12:00.040Z,22.19
2022-09-12T14:14:32.536Z,22.73
2022-09-12T14:17:00.594Z,23.71
2022-09-12T14:19:29.277Z,23.51
2022-09-12T14:22:02.196Z,23.01
2022-09-12T14:24:29.829Z,24.13
2022-09-12T14:26:57.156Z,24.64
2022-09-12T14:29:25.344Z,25.23
2022-09-12T14:32:05.840Z,25.25
2022-09-12T14:34:32.918Z,25.98
2022-09-12T14:37:00.088Z,26.93
2022-09-12T14:39:37.988Z,26.99
2022-09-12T14:42:22.403Z,26.37
2022-09-12T14:45:16.061Z,26.23
2022-09-12T14:47:49.682Z,27.17
2022-09-12T14:50:27.839Z,28.14
2022-09-12T14:53:19.828Z,28.34
2022-09-12T14:56:10.952Z,27.79
2022-09-12T14:58:40.505Z,28.09
2022-09-12T15:01:07.988Z,27.91
2022-09-12T15:03:51.848Z,28.03
2022-09-12T15:06:33.235Z,28.14
2022-09-12T15:09:06.441Z,29.21
2022-09-12T15:11:34.241Z,29.44
2022-09-12T15:14:13.362Z,29.06
2022-09-12T15:16:40.737Z,28.70
2022-09-12T15:19:07.906Z,29.52
2022-09-12T15:21:35.133Z,29.21
2022-09-12T15:24:02.887Z,29.93
2022-09-12T15:26:31.691Z,30.25
2022-09-12T15:28:58.875Z,31.09
2022-09-12T15:31:31.631Z,31.14
2022-09-12T15:34:02.106Z,30.73
2022-09-12T15:36:29.588Z,31.17
2022-09-12T15:38:57.045Z,31.04
2022-09-12T15:41:38.158Z,31.37
2022-09-12T15:44:12.618Z,32.10
2022-09-12T15:46:55.536Z,32.19
2022-09-12T15:49:22.633Z,32.94
2022-09-12T15:51:49.679Z,33.24
2022-09-12T15:54:18.358Z,33.50
2022-09-12T15:56:45.985Z,33.81
2022-09-12T15:59:13.670Z,34.17
2022-09-12T16:01:40.813Z,34.51
2022-09-12T16:04:25.891Z,34.85
2022-09-12T16:06:54.632Z,35.07
2022-09-12T16:09:23.201Z,35.55
2022-09-12T16:11:50.983Z,35.81
2022-09-12T16:14:19.813Z,36.29
2022-09-12T16:16:59.230Z,36.50
2022-09-12T16:19:26.434Z,36.91
2022-09-12T16:21:53.558Z,37.11
2022-09-12T16:24:20.610Z,37.44
2022-09-12T16:26:47.763Z,37.98
2022-09-12T16:29:18.029Z,37.73
2022-09-12T16:31:45.377Z,38.27
2022-09-12T16:34:12.550Z,38.62
2022-09-12T16:36:39.634Z,38.83
2022-09-12T16:39:07.223Z,39.03
2022-09-12T16:41:34.378Z,39.02
2022-09-12T16:44:01.802Z,39.81
2022-09-12T16:46:29.122Z,40.15
2022-09-12T16:48:58.517Z,40.53
2022-09-12T16:51:38.303Z,40.40
2022-09-12T16:54:05.490Z,40.28
2022-09-12T16:56:32.646Z,40.53
2022-09-12T16:58:59.725Z,40.89
2022-09-12T17:01:27.314Z,40.81
2022-09-12T17:03:57.471Z,41.46
2022-09-12T17:06:26.347Z,41.37
2022-09-12T17:08:58.189Z,42.41
2022-09-12T17:11:30.913Z,42.77
2022-09-12T17:14:04.929Z,42.89
2022-09-12T17:16:36.131Z,43.14
2022-09-12T17:19:04.579Z,43.11
2022-09-12T17:21:32.341Z,43.77
2022-09-12T17:23:59.558Z,43.93
2022-09-12T17:26:27.005Z,43.99
2022-09-12T17:28:54.150Z,44.23
2022-09-12T17:31:21.302Z,44.59
2022-09-12T17:33:48.586Z,44.87
2022-09-12T17:36:18.115Z,44.89
2022-09-12T17:38:46.601Z,44.90
2022-09-12T17:41:20.952Z,45.55
2022-09-12T17:43:56.290Z,45.33
2022-09-12T17:46:36.346Z,45.69
2022-09-12T17:49:17.470Z,46.09
2022-09-12T17:51:45.434Z,46.23
2022-09-12T17:54:18.827Z,46.29
2022-09-12T17:56:47.350Z,46.25
2022-09-12T17:59:18.780Z,46.32
2022-09-12T18:02:05.403Z,46.83
2022-09-12T18:04:32.938Z,47.26
2022-09-12T18:07:00.526Z,47.50
2022-09-12T18:09:28.353Z,47.67
2022-09-12T18:11:56.031Z,47.60
2022-09-12T18:14:23.968Z,47.81
2022-09-12T18:16:51.154Z,48.11
2022-09-12T18:19:18.380Z,48.25
2022-09-12T18:21:46.019Z,48.32
2022-09-12T18:24:13.710Z,48.64
2022-09-12T18:26:40.842Z,48.51
2022-09-12T18:29:07.980Z,48.91
2022-09-12T18:31:35.712Z,48.83
2022-09-12T18:34:02.885Z,48.82
2022-09-12T18:36:30.866Z,49.49
2022-09-12T18:38:59.663Z,49.63
2022-09-12T18:41:29.043Z,50.26
2022-09-12T18:44:01.540Z,50.45
2022-09-12T18:46:31.449Z,50.41
2022-09-12T18:49:00.212Z,50.63
2022-09-12T18:51:31.723Z,51.04
2022-09-12T18:54:11.333Z,51.28
2022-09-12T18:56:39.506Z,51.57
2022-09-12T18:59:07.565Z,51.80
2022-09-12T19:01:37.851Z,52.05
2022-09-12T19:04:07.712Z,52.49
2022-09-12T19:06:39.067Z,52.73
2022-09-12T19:09:08.332Z,53.00
2022-09-12T19:11:38.486Z,53.12
2022-09-12T19:14:07.586Z,53.36
2022-09-12T19:16:35.720Z,53.57
2022-09-12T19:19:04.110Z,53.91
2022-09-12T19:21:33.026Z,54.33
2022-09-12T19:24:04.437Z,54.35
2022-09-12T19:26:32.655Z,54.81
2022-09-12T19:29:02.525Z,55.27
2022-09-12T19:31:31.027Z,55.22
2022-09-12T19:34:06.997Z,55.66
2022-09-12T19:36:50.401Z,55.89
2022-09-12T19:39:19.750Z,55.82
2022-09-12T19:41:47.968Z,56.03
2022-09-12T19:44:15.065Z,56.30
2022-09-12T19:46:42.333Z,56.28
2022-09-12T19:49:12.035Z,56.70
2022-09-12T19:51:39.416Z,56.94
2022-09-12T19:54:07.800Z,57.44
2022-09-12T19:56:35.053Z,57.23
2022-09-12T19:59:02.101Z,57.32
2022-09-12T20:01:29.371Z,57.54
2022-09-12T20:03:58.197Z,57.68
2022-09-12T20:06:26.519Z,58.03
2022-09-12T20:08:54.427Z,58.25
2022-09-12T20:11:23.958Z,58.24
2022-09-12T20:13:51.317Z,58.62
2022-09-12T20:16:29.036Z,58.76
2022-09-12T20:19:00.143Z,59.06
2022-09-12T20:21:31.714Z,59.17
2022-09-12T20:24:10.471Z,59.17
2022-09-12T20:26:37.784Z,59.56
2022-09-12T20:29:07.194Z,59.63
2022-09-12T20:31:36.499Z,59.69
2022-09-12T20:34:04.924Z,59.94
2022-09-12T20:36:32.012Z,59.99
2022-09-12T20:39:01.382Z,60.12
2022-09-12T20:41:31.916Z,60.22
2022-09-12T20:43:59.198Z,60.36
2022-09-12T20:46:28.285Z,60.56
2022-09-12T20:48:55.764Z,60.65
2022-09-12T20:51:23.221Z,60.79
2022-09-12T20:53:54.601Z,60.75
2022-09-12T20:56:23.343Z,60.99
2022-09-12T20:58:51.448Z,60.95
2022-09-12T21:01:18.732Z,61.03
2022-09-12T21:03:46.894Z,61.11
2022-09-12T21:06:19.262Z,61.30
2022-09-12T21:08:48.891Z,61.19
2022-09-12T21:11:17.507Z,61.33
2022-09-12T21:13:44.569Z,61.14
2022-09-12T21:16:18.478Z,61.32
2022-09-12T21:18:46.170Z,61.53
2022-09-12T21:21:15.759Z,61.43
2022-09-12T21:23:43.022Z,61.42
2022-09-12T21:26:10.580Z,61.65
2022-09-12T21:28:37.676Z,61.46
2022-09-12T21:31:04.982Z,61.77
2022-09-12T21:33:32.203Z,61.63
2022-09-12T21:36:07.296Z,61.57
2022-09-12T21:38:34.658Z,61.42
2022-09-12T21:41:14.516Z,61.48
2022-09-12T21:43:42.784Z,61.85
2022-09-12T21:46:10.672Z,61.87
2022-09-12T21:48:37.899Z,61.96
2022-09-12T21:51:05.462Z,62.05
2022-09-12T21:53:32.521Z,62.08
2022-09-12T21:56:08.624Z,61.97
2022-09-12T21:58:37.215Z,62.21
2022-09-12T22:01:05.910Z,62.06
2022-09-12T22:03:33.113Z,61.87
2022-09-12T22:06:02.704Z,61.87
2022-09-12T22:08:32.058Z,61.86
2022-09-12T22:11:02.159Z,61.93
2022-09-12T22:13:32.194Z,61.93
2022-09-12T22:16:03.140Z,61.97
2022-09-12T22:18:34.322Z,61.96
2022-09-12T22:21:06.870Z,61.88
2022-09-12T22:23:52.718Z,62.00
2022-09-12T22:26:20.452Z,61.96
2022-09-12T22:28:47.871Z,62.22
2022-09-12T22:31:16.176Z,62.31
2022-09-12T22:33:43.793Z,62.35
2022-09-12T22:36:11.484Z,62.30
2022-09-12T22:38:38.685Z,62.44
2022-09-12T22:41:09.238Z,62.25
2022-09-12T22:43:37.798Z,62.42
2022-09-12T22:46:10.273Z,62.29
2022-09-12T22:48:38.183Z,62.58
2022-09-12T22:51:06.164Z,62.38
2022-09-12T22:53:34.614Z,62.33
2022-09-12T22:56:02.532Z,62.42
2022-09-12T22:58:29.663Z,62.26
2022-09-12T23:00:56.857Z,62.38
2022-09-12T23:03:24.318Z,62.22
2022-09-12T23:05:52.064Z,62.23
2022-09-12T23:08:19.400Z,62.24
2022-09-12T23:10:46.859Z,62.13
2022-09-12T23:13:14.056Z,62.46
2022-09-12T23:15:41.224Z,62.50
2022-09-12T23:18:08.564Z,62.44
2022-09-12T23:20:35.685Z,62.60
2022-09-12T23:23:02.912Z,62.63
2022-09-12T23:25:30.997Z,62.64
2022-09-12T23:27:58.689Z,62.67
2022-09-12T23:30:25.815Z,62.75
2022-09-12T23:32:53.023Z,62.74
2022-09-12T23:35:20.261Z,62.38
2022-09-12T23:37:47.670Z,63.00
2022-09-12T23:40:15.065Z,62.93
2022-09-12T23:42:42.270Z,63.01
2022-09-12T23:45:10.381Z,63.04
2022-09-12T23:47:37.589Z,62.91
2022-09-12T23:50:05.169Z,63.07
2022-09-12T23:52:32.339Z,63.08
2022-09-12T23:54:59.450Z,62.98
2022-09-12T23:57:26.542Z,63.11
2022-09-12T23:59:53.825Z,62.92
